Chautauqua County-Jamestown Airport Jamestown US
ICAO: KJHW
IATA: JHW
Category: Medium
Scheduled Services: No

Elevation: 1723 ft
TransAlt. 18000 ft.

Airport Communications:
ERIE APP/DEP:126.05
AWOS 3:118.425
BUFFALO RDO:114.7
CTAF/UNICOM:122.7

KJHW Zoom In..

Runways:

(A) RW 07 length 5299 ft width 100 ft
---- / hdg 69

(B) RW 13 length 4500 ft width 100 ft
---- / hdg 129

(C) RW 25 length 5299 ft width 100 ft
ILS 109.70 / hdg 249

(D) RW 31 length 4500 ft width 100 ft
---- / hdg 309

Location; KJHW
Day. 24 / Time. 01.56 Zulu
* Altimeter: 29.74
* Temperature: -01° c. -30.2°f.
* Wind from: 260° Speed 17 kn with Gusts up to 28 kn.
Dewpoint: -02° c.
Visibility: 2 Statute Miles.
Clouds: Overcast 900 ft.
Conditions: Light Snow.Conditions: Mist.

KJHW 240156Z AUTO 26017G28KT 2SM -SN BR OVC009 M01/M02 A2974 RMK AO2 PK WND 26031/0144 CIG 008V012 SLP090 P0000 T10111022 FZRANO


Wind From 260°
Speed 17 kn.

YouTube Music Video
 
jpsmedia.com for Web Design  worldairports.se 2018   terms of use